Stolt Aguila — ZCYX9 — position and weather

sailwx.info

Track history (hours):
 
Tides and Currents Weather Stations Pressure Air Temp Water Temp Dewpoint Dewpoint Depression Visibility Wind Speed Wind Dir Waves Ship Positions

Stolt Aguila

Last reported at 2018-Feb-23 22:14 UTC. Time now 2018-Feb-25 06:10 UTC.
Position N 29°21' W 094°47'.

Length 124 m; draft 9.3 m.

Type: Ship (hazmat cat B). MMSI: 319014200.

Date/timePositionNaut miles runAvg speedWind from/ knotsBaromVisibWave heightAir tempDewpointWater temp
2018-Feb-23 22:14N 29°21' W 094°47'2 9.4
2018-Feb-23 22:00N 29°23' W 094°49'6 9.6
2018-Feb-23 21:25N 29°28' W 094°51'4 9.5
2018-Feb-23 21:00N 29°31' W 094°53'5 9.8
2018-Feb-23 20:30N 29°36' W 094°57'510.0
2018-Feb-23 20:00N 29°40' W 094°59'4 8.1
2018-Feb-23 19:30N 29°43' W 095°01'3 5.9
2018-Feb-23 19:01N 29°45' W 095°04'4 0.2
2018-Feb-23 02:34N 29°44' W 095°08'0 1.5
2018-Feb-23 02:30N 29°44' W 095°08'3 5.8
2018-Feb-23 02:00N 29°46' W 095°05'4 6.7
2018-Feb-23 01:29N 29°44' W 095°02'1 0.0
2018-Feb-21 03:30N 29°44' W 095°01'2 3.5
2018-Feb-21 03:00N 29°42' W 095°00'510.5
2018-Feb-21 02:29N 29°37' W 094°57'511.2
2018-Feb-21 02:00N 29°33' W 094°54'711.4
2018-Feb-21 01:22N 29°26' W 094°50'17 1.4
2018-Feb-20 13:28N 29°18' W 094°33'0 0.0
2018-Feb-20 12:58N 29°18' W 094°33'0 0.0
2018-Feb-20 12:28N 29°18' W 094°33'0 0.0
2018-Feb-20 09:43N 29°18' W 094°33'0 0.0
2018-Feb-20 07:19N 29°18' W 094°33'0 0.0
2018-Feb-20 06:55N 29°18' W 094°33'0 0.0
2018-Feb-19 19:37N 29°18' W 094°33'0 0.0
2018-Feb-19 17:13N 29°18' W 094°33'0 0.0
2018-Feb-19 16:55N 29°18' W 094°33'0 0.0
2018-Feb-19 16:10N 29°18' W 094°33'0 0.0
2018-Feb-19 15:52N 29°18' W 094°33'0 0.0
2018-Feb-19 14:49N 29°18' W 094°33'0 0.0
2018-Feb-19 14:19N 29°18' W 094°33'0 0.0
2018-Feb-19 13:49N 29°18' W 094°33'0 0.0
2018-Feb-19 13:25N 29°18' W 094°33'0 0.0
2018-Feb-19 12:52N 29°18' W 094°33'0 0.0
2018-Feb-19 12:28N 29°18' W 094°33'0 0.0
2018-Feb-19 11:58N 29°18' W 094°33'0 0.0
2018-Feb-19 11:13N 29°18' W 094°33'0 0.0
2018-Feb-19 10:58N 29°18' W 094°33'0 0.0
2018-Feb-19 10:28N 29°18' W 094°33'0 0.0
2018-Feb-19 09:58N 29°18' W 094°33'0 0.0
2018-Feb-19 09:28N 29°18' W 094°33'0 0.0
2018-Feb-19 08:55N 29°18' W 094°33'0 0.0
2018-Feb-19 08:25N 29°18' W 094°33'0 0.0
2018-Feb-19 07:58N 29°18' W 094°33'0 0.0
2018-Feb-19 07:25N 29°18' W 094°33'0 0.0
2018-Feb-19 06:55N 29°18' W 094°33'0 0.0
2018-Feb-19 06:28N 29°18' W 094°33'0 0.0
2018-Feb-19 05:55N 29°18' W 094°33'0 0.0
2018-Feb-19 05:25N 29°18' W 094°33'0 0.0
2018-Feb-19 04:58N 29°18' W 094°33'0 0.0
2018-Feb-19 04:28N 29°18' W 094°33'0 0.0
2018-Feb-19 03:49N 29°18' W 094°33'0 0.0
2018-Feb-18 21:55N 29°18' W 094°33'0 0.1
2018-Feb-18 21:13N 29°18' W 094°33'3512.1
2018-Feb-18 18:19N 28°43' W 094°25'614.2
2018-Feb-18 17:53N 28°37' W 094°25'14014.8
2018-Feb-18 08:23N 26°17' W 094°25'  
Track history (hours):
 
Tides and Currents Weather Stations Pressure Air Temp Water Temp Dewpoint Dewpoint Depression Visibility Wind Speed Wind Dir Waves Ship Positions

Stolt Aguila

Last reported at 2018-Feb-23 22:14 UTC. Time now 2018-Feb-25 06:10 UTC.
Position N 29°21' W 094°47'.

Length 124 m; draft 9.3 m.

Type: Ship (hazmat cat B). MMSI: 319014200.

Date/timePositionNaut miles runAvg speedWind from/ knotsBaromVisibWave heightAir tempDewpointWater temp
2018-Feb-23 22:14N 29°21' W 094°47'2 9.4
2018-Feb-23 22:00N 29°23' W 094°49'6 9.6
2018-Feb-23 21:25N 29°28' W 094°51'4 9.5
2018-Feb-23 21:00N 29°31' W 094°53'5 9.8
2018-Feb-23 20:30N 29°36' W 094°57'510.0
2018-Feb-23 20:00N 29°40' W 094°59'4 8.1
2018-Feb-23 19:30N 29°43' W 095°01'3 5.9
2018-Feb-23 19:01N 29°45' W 095°04'4 0.2
2018-Feb-23 02:34N 29°44' W 095°08'0 1.5
2018-Feb-23 02:30N 29°44' W 095°08'3 5.8
2018-Feb-23 02:00N 29°46' W 095°05'4 6.7
2018-Feb-23 01:29N 29°44' W 095°02'1 0.0
2018-Feb-21 03:30N 29°44' W 095°01'2 3.5
2018-Feb-21 03:00N 29°42' W 095°00'510.5
2018-Feb-21 02:29N 29°37' W 094°57'511.2
2018-Feb-21 02:00N 29°33' W 094°54'711.4
2018-Feb-21 01:22N 29°26' W 094°50'17 1.4
2018-Feb-20 13:28N 29°18' W 094°33'0 0.0
2018-Feb-20 12:58N 29°18' W 094°33'0 0.0
2018-Feb-20 12:28N 29°18' W 094°33'0 0.0
2018-Feb-20 09:43N 29°18' W 094°33'0 0.0
2018-Feb-20 07:19N 29°18' W 094°33'0 0.0
2018-Feb-20 06:55N 29°18' W 094°33'0 0.0
2018-Feb-19 19:37N 29°18' W 094°33'0 0.0
2018-Feb-19 17:13N 29°18' W 094°33'0 0.0
2018-Feb-19 16:55N 29°18' W 094°33'0 0.0
2018-Feb-19 16:10N 29°18' W 094°33'0 0.0
2018-Feb-19 15:52N 29°18' W 094°33'0 0.0
2018-Feb-19 14:49N 29°18' W 094°33'0 0.0
2018-Feb-19 14:19N 29°18' W 094°33'0 0.0
2018-Feb-19 13:49N 29°18' W 094°33'0 0.0
2018-Feb-19 13:25N 29°18' W 094°33'0 0.0
2018-Feb-19 12:52N 29°18' W 094°33'0 0.0
2018-Feb-19 12:28N 29°18' W 094°33'0 0.0
2018-Feb-19 11:58N 29°18' W 094°33'0 0.0
2018-Feb-19 11:13N 29°18' W 094°33'0 0.0
2018-Feb-19 10:58N 29°18' W 094°33'0 0.0
2018-Feb-19 10:28N 29°18' W 094°33'0 0.0
2018-Feb-19 09:58N 29°18' W 094°33'0 0.0
2018-Feb-19 09:28N 29°18' W 094°33'0 0.0
2018-Feb-19 08:55N 29°18' W 094°33'0 0.0
2018-Feb-19 08:25N 29°18' W 094°33'0 0.0
2018-Feb-19 07:58N 29°18' W 094°33'0 0.0
2018-Feb-19 07:25N 29°18' W 094°33'0 0.0
2018-Feb-19 06:55N 29°18' W 094°33'0 0.0
2018-Feb-19 06:28N 29°18' W 094°33'0 0.0
2018-Feb-19 05:55N 29°18' W 094°33'0 0.0
2018-Feb-19 05:25N 29°18' W 094°33'0 0.0
2018-Feb-19 04:58N 29°18' W 094°33'0 0.0
2018-Feb-19 04:28N 29°18' W 094°33'0 0.0
2018-Feb-19 03:49N 29°18' W 094°33'0 0.0
2018-Feb-18 21:55N 29°18' W 094°33'0 0.1
2018-Feb-18 21:13N 29°18' W 094°33'3512.1
2018-Feb-18 18:19N 28°43' W 094°25'614.2
2018-Feb-18 17:53N 28°37' W 094°25'14014.8
2018-Feb-18 08:23N 26°17' W 094°25'  

Dump ship's entire track history